Time;durP1;ratioP1;P1;durP2;ratioP2;P2;SDS_P1;SDS_P2;PMS_P1;PMS_P2;Temp;Humidity;BMP_temperature;BMP_pressure;BME280_temperature;BME280_humidity;BME280_pressure;Samples;Min_cycle;Max_cycle;Signal;HPM_P1;HPM_P2
2020/12/16 00:02:22;;;;;;;10.98;5.75;;;9.10;99.10;;;;;;5029191;28;20148;-67
2020/12/16 00:04:48;;;;;;;9.50;5.50;;;9.10;99.10;;;;;;5028932;28;20132;-67
2020/12/16 00:07:15;;;;;;;10.85;6.60;;;9.10;99.10;;;;;;5037282;28;20484;-67
2020/12/16 00:09:41;;;;;;;13.68;7.68;;;9.10;99.20;;;;;;5039980;28;20123;-67
2020/12/16 00:12:08;;;;;;;15.15;8.70;;;9.10;99.10;;;;;;5031935;28;20133;-68
2020/12/16 00:14:35;;;;;;;11.52;6.80;;;9.10;99.10;;;;;;5030090;28;20103;-68
2020/12/16 00:17:01;;;;;;;10.43;6.10;;;9.10;99.20;;;;;;5039287;28;20569;-68
2020/12/16 00:19:28;;;;;;;8.30;4.68;;;9.10;99.10;;;;;;5032354;28;20071;-67
2020/12/16 00:21:58;;;;;;;8.75;5.45;;;9.00;99.10;;;;;;5031111;28;20068;-67
2020/12/16 00:24:24;;;;;;;9.68;5.47;;;9.00;99.10;;;;;;5039286;28;20067;-67
2020/12/16 00:26:51;;;;;;;7.50;4.32;;;9.10;99.10;;;;;;5038585;28;20073;-67
2020/12/16 00:29:17;;;;;;;7.78;4.28;;;9.10;98.80;;;;;;5036483;28;20151;-67
2020/12/16 00:31:43;;;;;;;8.52;3.88;;;9.00;98.80;;;;;;5044812;28;20051;-67
2020/12/16 00:34:10;;;;;;;8.73;5.00;;;9.00;99.00;;;;;;5031945;28;20136;-67
2020/12/16 00:36:40;;;;;;;9.95;5.60;;;8.90;99.20;;;;;;5032700;28;20055;-67
2020/12/16 00:39:08;;;;;;;11.65;5.80;;;8.90;99.30;;;;;;5037305;28;20139;-67
2020/12/16 00:41:36;;;;;;;10.75;5.45;;;8.90;99.10;;;;;;5040448;28;20052;-67
2020/12/16 00:44:04;;;;;;;6.80;4.43;;;8.90;99.20;;;;;;5037254;28;20056;-68
2020/12/16 00:46:32;;;;;;;10.40;5.78;;;8.80;99.30;;;;;;5027619;28;20689;-67
2020/12/16 00:48:58;;;;;;;11.40;6.30;;;8.90;99.40;;;;;;5029267;28;20120;-67
2020/12/16 00:51:24;;;;;;;10.52;6.72;;;8.90;99.30;;;;;;5028964;28;20122;-67
2020/12/16 00:53:51;;;;;;;11.10;7.18;;;8.90;99.20;;;;;;5029216;28;20152;-67
2020/12/16 00:56:17;;;;;;;10.63;6.20;;;8.90;99.00;;;;;;5029260;28;20045;-67
2020/12/16 00:58:43;;;;;;;9.20;5.43;;;8.90;99.00;;;;;;5029339;28;20053;-67
2020/12/16 01:01:10;;;;;;;12.02;6.78;;;9.00;99.00;;;;;;5029117;28;20072;-67
2020/12/16 01:03:36;;;;;;;11.10;5.63;;;8.90;98.80;;;;;;5028962;28;20578;-67
2020/12/16 01:06:03;;;;;;;9.27;5.63;;;8.90;99.00;;;;;;5028840;28;20132;-67
2020/12/16 01:08:29;;;;;;;21.02;9.98;;;8.90;98.90;;;;;;5010035;28;20073;-68
2020/12/16 01:10:56;;;;;;;14.50;7.13;;;8.90;99.10;;;;;;5024198;28;20049;-67
2020/12/16 01:13:23;;;;;;;12.50;7.25;;;8.90;99.10;;;;;;5029580;28;20083;-67
2020/12/16 01:15:49;;;;;;;6.82;4.97;;;8.90;99.00;;;;;;5028255;28;20136;-67
2020/12/16 01:18:15;;;;;;;11.45;6.18;;;8.90;99.00;;;;;;5028975;28;20132;-67
2020/12/16 01:20:42;;;;;;;9.55;6.50;;;8.90;99.10;;;;;;5029099;28;20045;-67
2020/12/16 01:23:09;;;;;;;11.10;6.13;;;8.90;99.00;;;;;;5029313;28;20077;-67
2020/12/16 01:25:36;;;;;;;13.70;7.75;;;8.90;99.10;;;;;;5028869;28;20111;-67
2020/12/16 01:28:02;;;;;;;11.07;6.75;;;8.90;99.20;;;;;;5026980;28;20140;-67
2020/12/16 01:30:29;;;;;;;9.52;5.22;;;8.90;99.00;;;;;;5027834;28;20045;-67
2020/12/16 01:32:56;;;;;;;10.43;6.18;;;8.90;99.00;;;;;;5029003;28;20133;-67
2020/12/16 01:35:25;;;;;;;7.90;4.35;;;9.00;98.80;;;;;;5028793;28;20149;-68
2020/12/16 01:37:53;;;;;;;7.43;4.43;;;9.10;98.80;;;;;;5028698;28;20081;-67
2020/12/16 01:40:20;;;;;;;7.47;4.20;;;9.10;98.50;;;;;;5028461;28;20497;-68
2020/12/16 01:42:47;;;;;;;8.95;5.15;;;9.20;98.30;;;;;;5028722;28;20140;-67
2020/12/16 01:45:17;;;;;;;11.30;6.90;;;9.20;98.30;;;;;;5028122;28;20136;-67
2020/12/16 01:47:45;;;;;;;10.63;6.70;;;9.10;98.30;;;;;;5028531;28;20095;-67
2020/12/16 01:50:12;;;;;;;10.55;6.75;;;9.00;98.50;;;;;;5027543;28;20073;-67
2020/12/16 01:52:39;;;;;;;10.52;6.35;;;9.00;98.50;;;;;;5028930;28;20053;-67
2020/12/16 01:55:07;;;;;;;8.95;5.38;;;9.00;98.60;;;;;;5028813;28;20303;-67
2020/12/16 01:57:39;;;;;;;7.70;5.22;;;9.10;98.70;;;;;;5028946;28;20045;-68
2020/12/16 02:00:09;;;;;;;9.70;5.00;;;9.10;98.40;;;;;;5028571;28;20049;-67
2020/12/16 02:02:51;;;;;;;7.90;5.13;;;9.10;98.40;;;;;;5029013;28;20050;-67
2020/12/16 02:05:21;;;;;;;6.70;4.47;;;9.20;98.30;;;;;;5029272;28;20136;-68
2020/12/16 02:07:48;;;;;;;10.40;6.18;;;9.20;98.30;;;;;;5028122;28;20517;-67
2020/12/16 02:10:15;;;;;;;10.07;6.32;;;9.10;98.20;;;;;;5028520;28;20045;-67
2020/12/16 02:12:41;;;;;;;10.38;5.97;;;9.00;98.30;;;;;;5028692;28;20133;-67
2020/12/16 02:15:09;;;;;;;9.65;5.85;;;8.90;98.60;;;;;;5028078;28;20073;-67
2020/12/16 02:17:36;;;;;;;7.20;4.68;;;8.90;98.80;;;;;;5028644;28;20132;-67
2020/12/16 02:20:07;;;;;;;10.15;5.13;;;9.00;98.80;;;;;;5028460;28;20133;-67
2020/12/16 02:22:36;;;;;;;8.63;5.10;;;9.00;98.60;;;;;;5028774;28;20086;-67
2020/12/16 02:25:12;;;;;;;6.38;4.45;;;9.00;98.50;;;;;;5028149;28;20049;-68
2020/12/16 02:27:41;;;;;;;14.27;7.22;;;9.00;98.40;;;;;;5023904;28;20140;-67
2020/12/16 02:30:09;;;;;;;17.83;8.32;;;9.00;98.50;;;;;;5026006;28;20498;-67
2020/12/16 02:32:38;;;;;;;18.00;7.85;;;8.90;98.70;;;;;;5027683;28;20156;-67
2020/12/16 02:35:06;;;;;;;12.85;6.82;;;8.90;98.90;;;;;;5026582;28;20140;-67
2020/12/16 02:37:33;;;;;;;20.52;8.95;;;8.80;99.00;;;;;;5028015;28;20133;-67
2020/12/16 02:39:59;;;;;;;18.55;8.40;;;8.80;98.90;;;;;;5026945;28;20137;-67
2020/12/16 02:42:28;;;;;;;28.20;8.50;;;8.80;99.10;;;;;;5025026;28;20145;-67
2020/12/16 02:44:57;;;;;;;66.38;10.68;;;8.80;99.20;;;;;;5027358;28;20137;-67
2020/12/16 02:47:24;;;;;;;29.88;7.25;;;8.70;99.30;;;;;;5025624;28;20060;-67
2020/12/16 02:49:51;;;;;;;14.07;6.40;;;8.70;99.40;;;;;;5026407;28;20120;-68
2020/12/16 02:52:17;;;;;;;10.63;6.05;;;8.80;99.40;;;;;;5027007;28;20248;-67
2020/12/16 02:54:43;;;;;;;8.60;4.85;;;8.80;99.20;;;;;;5027281;28;20422;-67
2020/12/16 02:57:10;;;;;;;12.50;6.65;;;8.90;99.00;;;;;;5029931;28;20042;-67
2020/12/16 02:59:36;;;;;;;11.63;6.57;;;8.90;98.70;;;;;;5030665;28;20132;-67
2020/12/16 03:02:03;;;;;;;16.67;6.85;;;9.00;98.70;;;;;;5030477;28;20467;-67
2020/12/16 03:04:29;;;;;;;45.72;9.48;;;8.90;98.70;;;;;;5030595;28;20049;-67
2020/12/16 03:06:57;;;;;;;39.58;8.13;;;8.80;98.80;;;;;;5029360;28;20037;-67
2020/12/16 03:09:25;;;;;;;78.90;10.20;;;8.80;99.10;;;;;;5031992;28;20045;-67
2020/12/16 03:11:53;;;;;;;49.90;8.30;;;8.70;99.30;;;;;;5030913;28;20092;-67
2020/12/16 03:14:20;;;;;;;42.20;8.15;;;8.70;99.60;;;;;;5030485;28;20363;-67
2020/12/16 03:16:47;;;;;;;28.23;8.32;;;8.60;99.40;;;;;;5030523;28;20091;-67
2020/12/16 03:19:14;;;;;;;11.65;5.80;;;8.60;99.40;;;;;;5031322;28;20132;-67
2020/12/16 03:21:40;;;;;;;11.98;5.43;;;8.60;99.50;;;;;;5030535;28;20053;-67
2020/12/16 03:24:18;;;;;;;7.75;4.65;;;8.60;99.70;;;;;;5030338;28;20418;-67
2020/12/16 03:26:45;;;;;;;12.52;5.88;;;8.70;99.40;;;;;;5028072;28;20132;-67
2020/12/16 03:29:11;;;;;;;11.93;5.57;;;8.80;99.40;;;;;;5031111;28;20053;-67
2020/12/16 03:31:38;;;;;;;9.18;5.30;;;8.80;99.10;;;;;;5030613;28;20073;-67
2020/12/16 03:34:04;;;;;;;8.20;4.32;;;8.70;99.10;;;;;;5031397;28;20136;-67
2020/12/16 03:36:31;;;;;;;8.43;4.13;;;8.70;99.10;;;;;;5029212;28;20053;-67
2020/12/16 03:38:57;;;;;;;9.27;5.00;;;8.70;99.10;;;;;;5031221;28;20519;-67
2020/12/16 03:41:23;;;;;;;8.73;4.43;;;8.70;99.10;;;;;;5028207;28;20557;-67
2020/12/16 03:43:50;;;;;;;9.32;4.35;;;8.70;99.20;;;;;;5030802;28;20132;-67
2020/12/16 03:46:17;;;;;;;7.50;3.42;;;8.70;99.10;;;;;;5028907;28;20152;-67
2020/12/16 03:48:44;;;;;;;5.75;3.40;;;8.70;99.20;;;;;;5028823;28;20507;-67
2020/12/16 03:51:13;;;;;;;4.63;3.25;;;8.80;99.00;;;;;;5031190;28;20045;-67
2020/12/16 03:53:40;;;;;;;6.18;3.15;;;8.80;99.10;;;;;;5029070;28;20107;-67
2020/12/16 03:56:08;;;;;;;10.13;4.88;;;8.80;98.90;;;;;;5027420;28;20053;-67
2020/12/16 03:58:46;;;;;;;9.38;4.53;;;8.80;98.90;;;;;;5030195;28;20267;-67
2020/12/16 04:01:15;;;;;;;7.38;4.30;;;8.80;99.10;;;;;;5020910;28;20133;-68
2020/12/16 04:03:41;;;;;;;8.93;5.13;;;8.90;98.90;;;;;;5029903;28;20136;-67
2020/12/16 04:06:09;;;;;;;9.15;4.80;;;8.90;98.80;;;;;;5029022;28;20052;-68
2020/12/16 04:08:37;;;;;;;8.70;4.32;;;8.80;98.80;;;;;;5029945;28;20501;-67
2020/12/16 04:11:09;;;;;;;8.77;4.85;;;8.80;98.70;;;;;;5026825;28;20536;-67
2020/12/16 04:13:36;;;;;;;12.57;5.70;;;8.80;98.90;;;;;;5029937;28;20073;-67
2020/12/16 04:16:04;;;;;;;11.05;5.32;;;8.80;99.20;;;;;;5029581;28;20496;-67
2020/12/16 04:18:31;;;;;;;10.70;5.30;;;8.80;99.10;;;;;;5029627;28;20057;-67
2020/12/16 04:20:57;;;;;;;8.18;4.40;;;8.70;99.00;;;;;;5028837;28;20045;-67
2020/12/16 04:23:24;;;;;;;5.82;3.45;;;8.70;99.10;;;;;;5029898;28;20133;-67
2020/12/16 04:25:50;;;;;;;6.75;3.55;;;8.70;99.20;;;;;;5023315;28;20076;-67
2020/12/16 04:28:17;;;;;;;7.97;4.57;;;8.70;99.00;;;;;;5028710;28;20156;-67
2020/12/16 04:30:43;;;;;;;10.73;5.65;;;8.80;99.10;;;;;;5027244;28;20073;-67
2020/12/16 04:33:10;;;;;;;6.18;2.92;;;8.80;99.00;;;;;;5029587;28;20512;-67
2020/12/16 04:35:36;;;;;;;3.30;2.22;;;8.70;98.90;;;;;;5028403;28;20077;-67
2020/12/16 04:38:03;;;;;;;3.90;2.38;;;8.70;98.70;;;;;;5028867;28;20045;-67
2020/12/16 04:40:29;;;;;;;4.25;2.65;;;8.70;98.70;;;;;;5028572;28;20058;-68
2020/12/16 04:43:10;;;;;;;4.68;2.78;;;8.60;98.80;;;;;;5028058;28;20492;-67
2020/12/16 04:45:40;;;;;;;5.50;3.47;;;8.50;99.00;;;;;;5029923;28;20556;-67
2020/12/16 04:48:11;;;;;;;4.72;2.55;;;8.50;99.30;;;;;;5027821;28;20041;-68
2020/12/16 04:50:39;;;;;;;4.85;2.10;;;8.50;99.20;;;;;;5028705;28;20141;-67
2020/12/16 04:53:09;;;;;;;12.45;5.95;;;8.60;99.00;;;;;;5029329;28;20129;-67
2020/12/16 04:55:38;;;;;;;;;;;8.60;99.10;;;;;;5028140;28;20176;-67
2020/12/16 04:58:06;;;;;;;13.32;6.35;;;8.60;99.20;;;;;;5028971;28;20004;-68
2020/12/16 05:00:33;;;;;;;22.02;8.13;;;8.60;99.30;;;;;;5026967;28;20491;-67
2020/12/16 05:03:02;;;;;;;9.70;5.65;;;8.50;99.30;;;;;;5027745;28;20129;-68
2020/12/16 05:05:29;;;;;;;18.25;7.80;;;8.50;99.30;;;;;;5029940;28;20053;-75
2020/12/16 05:07:56;;;;;;;10.48;5.28;;;8.50;99.20;;;;;;5027193;28;20510;-75
2020/12/16 05:10:31;;;;;;;4.90;2.53;;;8.50;99.40;;;;;;5027597;28;20053;-75
2020/12/16 05:13:07;;;;;;;5.18;2.17;;;8.50;99.30;;;;;;5027803;28;20047;-75
2020/12/16 05:15:35;;;;;;;5.13;2.70;;;8.50;99.20;;;;;;5028459;28;20125;-75
2020/12/16 05:18:23;;;;;;;2.63;1.63;;;8.50;99.30;;;;;;5026971;28;20141;-75
2020/12/16 05:20:52;;;;;;;3.80;2.33;;;8.50;99.20;;;;;;5028570;28;20140;-75
2020/12/16 05:23:23;;;;;;;5.43;2.47;;;8.40;99.00;;;;;;5029115;28;20128;-75
2020/12/16 05:26:07;;;;;;;5.95;2.35;;;8.30;99.30;;;;;;5027259;28;20045;-75
2020/12/16 05:28:39;;;;;;;3.95;2.47;;;8.30;99.40;;;;;;5024717;28;20045;-75
2020/12/16 05:31:08;;;;;;;4.05;2.33;;;8.20;99.20;;;;;;5027308;28;20089;-75
2020/12/16 05:33:41;;;;;;;5.60;2.92;;;8.10;99.40;;;;;;5029509;28;20504;-75
2020/12/16 05:36:09;;;;;;;2.95;1.90;;;8.10;99.70;;;;;;5028686;28;20081;-75
2020/12/16 05:38:52;;;;;;;4.18;2.63;;;8.10;99.70;;;;;;5029009;28;20084;-75
2020/12/16 05:41:32;;;;;;;5.97;2.67;;;8.10;99.70;;;;;;5024777;28;20049;-75
2020/12/16 05:44:18;;;;;;;4.55;2.70;;;8.10;99.70;;;;;;5036024;28;20127;-75
2020/12/16 05:46:50;;;;;;;5.20;3.47;;;8.10;99.60;;;;;;5026935;28;20077;-75
2020/12/16 05:49:22;;;;;;;9.48;5.57;;;8.20;99.60;;;;;;5029203;28;20053;-75
2020/12/16 05:51:56;;;;;;;8.38;4.45;;;8.10;99.50;;;;;;5027537;28;20130;-75
2020/12/16 05:54:22;;;;;;;6.20;3.78;;;8.20;99.60;;;;;;5028223;28;20119;-75
2020/12/16 05:57:12;;;;;;;6.32;3.63;;;8.20;99.40;;;;;;5024772;28;20582;-75
2020/12/16 05:59:39;;;;;;;5.63;3.42;;;8.30;99.30;;;;;;5029424;28;20491;-75
2020/12/16 06:02:07;;;;;;;5.55;3.22;;;8.20;99.20;;;;;;5027187;28;20100;-75
2020/12/16 06:04:37;;;;;;;4.65;2.42;;;8.30;99.20;;;;;;5029195;28;20140;-76
2020/12/16 06:07:03;;;;;;;7.40;4.40;;;8.20;98.80;;;;;;5027712;28;20080;-67
2020/12/16 06:09:32;;;;;;;10.05;5.55;;;8.20;99.20;;;;;;5029145;28;20042;-67
2020/12/16 06:12:05;;;;;;;14.02;6.75;;;8.20;99.30;;;;;;5025483;28;20132;-67
2020/12/16 06:14:34;;;;;;;16.38;9.88;;;8.20;99.40;;;;;;5027492;28;20184;-67
2020/12/16 06:17:11;;;;;;;14.02;9.45;;;8.20;99.40;;;;;;5028209;28;20088;-67
2020/12/16 06:19:44;;;;;;;11.57;7.30;;;8.30;99.30;;;;;;5028675;28;20128;-68
2020/12/16 06:22:11;;;;;;;14.45;7.03;;;8.30;99.40;;;;;;5027424;28;20077;-67
2020/12/16 06:24:42;;;;;;;13.32;6.57;;;8.30;99.30;;;;;;5026787;28;20060;-67
2020/12/16 06:27:11;;;;;;;11.15;6.00;;;8.20;99.40;;;;;;5027721;28;20042;-67
2020/12/16 06:29:41;;;;;;;11.88;6.43;;;8.20;99.60;;;;;;5028175;28;20457;-67
2020/12/16 06:32:24;;;;;;;10.95;5.85;;;8.20;99.70;;;;;;5032429;28;20081;-67
2020/12/16 06:34:53;;;;;;;11.13;6.50;;;8.20;99.80;;;;;;5033197;28;20652;-67
2020/12/16 06:37:19;;;;;;;9.40;5.30;;;8.20;99.70;;;;;;5032413;28;20046;-67
2020/12/16 06:39:45;;;;;;;9.20;5.53;;;8.20;99.70;;;;;;5032945;28;20050;-67
2020/12/16 06:42:11;;;;;;;8.68;5.18;;;8.30;99.60;;;;;;5030978;28;20049;-67
2020/12/16 06:44:38;;;;;;;7.75;4.88;;;8.30;99.50;;;;;;5033408;28;20463;-67
2020/12/16 06:47:04;;;;;;;13.00;7.30;;;8.30;99.60;;;;;;5024347;28;20052;-66
2020/12/16 06:49:34;;;;;;;20.63;12.93;;;8.40;99.50;;;;;;5032315;28;20301;-68
2020/12/16 06:52:06;;;;;;;11.13;7.07;;;8.40;99.30;;;;;;5030022;28;20426;-68
2020/12/16 06:54:42;;;;;;;9.68;5.45;;;8.40;99.30;;;;;;5031635;28;20123;-66
2020/12/16 06:57:13;;;;;;;9.15;5.43;;;8.30;99.40;;;;;;5028673;28;20132;-68
2020/12/16 06:59:43;;;;;;;8.63;5.65;;;8.40;99.40;;;;;;5015844;28;20057;-67
2020/12/16 07:02:11;;;;;;;10.68;6.57;;;8.40;99.70;;;;;;5027220;28;20208;-67
2020/12/16 07:04:37;;;;;;;8.25;5.22;;;8.40;99.40;;;;;;5031474;28;20111;-67
2020/12/16 07:07:04;;;;;;;8.27;5.18;;;8.40;99.40;;;;;;5022214;28;20213;-67
2020/12/16 07:09:44;;;;;;;11.18;6.25;;;8.40;99.40;;;;;;5020265;28;20479;-67
2020/12/16 07:12:29;;;;;;;7.90;5.30;;;8.40;99.40;;;;;;5019778;28;20038;-67
2020/12/16 07:14:55;;;;;;;9.27;6.28;;;8.50;99.30;;;;;;5020498;28;20124;-67
2020/12/16 07:17:21;;;;;;;9.93;6.50;;;8.50;99.30;;;;;;5029300;28;20091;-67
2020/12/16 07:19:48;;;;;;;10.23;6.68;;;8.50;99.30;;;;;;5029445;28;20079;-67
2020/12/16 07:22:15;;;;;;;11.25;5.82;;;8.50;99.20;;;;;;5017407;28;20050;-68
2020/12/16 07:24:52;;;;;;;11.93;7.00;;;8.50;99.20;;;;;;5025459;28;20128;-67
2020/12/16 07:27:20;;;;;;;6.82;4.75;;;8.50;99.50;;;;;;5029150;28;20037;-67
2020/12/16 07:29:57;;;;;;;16.48;9.55;;;8.50;99.30;;;;;;5021886;28;20100;-67
2020/12/16 07:32:25;;;;;;;18.75;11.73;;;8.50;99.30;;;;;;5028901;28;20561;-67
2020/12/16 07:35:01;;;;;;;17.55;11.20;;;8.60;99.30;;;;;;5024314;28;20132;-67
2020/12/16 07:37:32;;;;;;;15.18;9.98;;;8.60;99.10;;;;;;5030460;28;20464;-67
2020/12/16 07:40:02;;;;;;;19.25;11.35;;;8.50;99.30;;;;;;5018349;28;20557;-67
2020/12/16 07:42:34;;;;;;;25.67;13.40;;;8.50;99.20;;;;;;5018127;28;20073;-67
2020/12/16 07:45:05;;;;;;;25.55;15.73;;;8.50;99.30;;;;;;5014323;28;20506;-67
2020/12/16 07:47:32;;;;;;;27.58;17.33;;;8.50;99.30;;;;;;5028266;28;20081;-67
2020/12/16 07:49:58;;;;;;;24.90;17.45;;;8.50;99.40;;;;;;5014742;28;20093;-67
2020/12/16 07:52:27;;;;;;;27.33;17.40;;;8.50;99.40;;;;;;5024862;28;20137;-67
2020/12/16 07:54:54;;;;;;;26.80;17.52;;;8.50;99.50;;;;;;5013683;28;20565;-66
2020/12/16 07:57:28;;;;;;;28.23;14.38;;;8.50;99.40;;;;;;5017222;28;20610;-67
2020/12/16 07:59:54;;;;;;;16.83;11.55;;;8.50;99.40;;;;;;5019613;28;20132;-67
2020/12/16 08:02:21;;;;;;;14.50;9.35;;;8.50;99.30;;;;;;5023100;28;20053;-67
2020/12/16 08:04:58;;;;;;;18.70;11.00;;;8.50;99.50;;;;;;5020158;28;20060;-67
2020/12/16 08:07:25;;;;;;;15.45;9.75;;;8.60;99.80;;;;;;5028249;28;20046;-66
2020/12/16 08:09:56;;;;;;;13.18;9.13;;;8.60;99.50;;;;;;5021251;28;20084;-67
2020/12/16 08:12:25;;;;;;;14.30;10.10;;;8.60;99.50;;;;;;5021127;28;20131;-67
2020/12/16 08:15:11;;;;;;;14.23;9.27;;;8.60;99.50;;;;;;5019866;28;20175;-66
2020/12/16 08:17:42;;;;;;;17.63;11.05;;;8.70;99.50;;;;;;5022752;28;20479;-66
2020/12/16 08:20:18;;;;;;;15.07;8.82;;;8.70;99.40;;;;;;5013391;28;20046;-67
2020/12/16 08:22:50;;;;;;;14.30;8.95;;;8.70;99.40;;;;;;5019518;28;20053;-66
2020/12/16 08:25:18;;;;;;;12.98;9.10;;;8.70;99.40;;;;;;5028688;28;20091;-67
2020/12/16 08:27:46;;;;;;;11.40;8.00;;;8.80;99.50;;;;;;5026375;28;20478;-66
2020/12/16 08:30:16;;;;;;;11.27;8.38;;;8.80;99.40;;;;;;5024746;28;20060;-66
2020/12/16 08:33:01;;;;;;;13.10;10.15;;;8.70;99.40;;;;;;5016299;28;20065;-66
2020/12/16 08:35:41;;;;;;;15.30;10.32;;;8.80;99.40;;;;;;5014337;28;20056;-66
2020/12/16 08:38:09;;;;;;;10.35;7.10;;;8.80;99.20;;;;;;5016028;28;20081;-67
2020/12/16 08:40:39;;;;;;;15.73;10.73;;;8.80;99.10;;;;;;5017584;28;20072;-67
2020/12/16 08:43:30;;;;;;;15.70;9.25;;;8.80;99.20;;;;;;5018334;28;20123;-67
2020/12/16 08:46:10;;;;;;;9.73;8.05;;;8.80;99.10;;;;;;5017243;28;20186;-67
2020/12/16 08:48:45;;;;;;;17.13;10.95;;;8.80;99.10;;;;;;5029429;28;20098;-67
2020/12/16 08:51:15;;;;;;;8.25;6.25;;;8.90;99.00;;;;;;5022611;28;20468;-66
2020/12/16 08:53:54;;;;;;;14.88;10.77;;;8.80;98.90;;;;;;5017624;28;20156;-67
2020/12/16 08:56:49;;;;;;;12.77;9.93;;;9.00;98.90;;;;;;5024306;28;20057;-66
2020/12/16 08:59:23;;;;;;;11.07;8.55;;;9.00;98.60;;;;;;5023756;28;20052;-67
2020/12/16 09:01:51;;;;;;;13.52;9.90;;;9.00;98.80;;;;;;5024418;28;20080;-66
2020/12/16 09:04:25;;;;;;;12.60;9.75;;;9.00;98.60;;;;;;5020514;28;20120;-66
2020/12/16 09:07:07;;;;;;;14.05;8.90;;;9.10;98.30;;;;;;5024783;28;20140;-66
2020/12/16 09:09:51;;;;;;;11.60;7.85;;;9.20;98.30;;;;;;5020363;28;20045;-67
2020/12/16 09:12:20;;;;;;;10.25;7.78;;;9.20;98.20;;;;;;5025068;28;20041;-67
2020/12/16 09:14:54;;;;;;;12.48;8.55;;;9.20;98.10;;;;;;5023399;28;20477;-66
2020/12/16 09:17:29;;;;;;;11.38;8.90;;;9.30;97.90;;;;;;5024768;28;20140;-66
2020/12/16 09:19:57;;;;;;;10.88;7.47;;;9.40;97.90;;;;;;5024433;28;20068;-66
2020/12/16 09:22:25;;;;;;;9.35;7.25;;;9.40;98.00;;;;;;5019725;28;20057;-66
2020/12/16 09:24:56;;;;;;;10.90;7.35;;;9.50;97.50;;;;;;5022762;28;20091;-65
2020/12/16 09:27:22;;;;;;;10.43;7.53;;;9.40;97.70;;;;;;5027166;28;20143;-66
2020/12/16 09:29:49;;;;;;;9.40;6.72;;;9.50;97.60;;;;;;5020091;28;20460;-66
2020/12/16 09:32:18;;;;;;;9.80;7.82;;;9.40;97.60;;;;;;5011717;28;20418;-67
2020/12/16 09:34:49;;;;;;;8.15;6.28;;;9.40;97.60;;;;;;5016854;28;20513;-66
2020/12/16 09:37:17;;;;;;;8.13;6.97;;;9.50;97.70;;;;;;5018657;28;20054;-66
2020/12/16 09:39:47;;;;;;;7.93;6.15;;;9.60;97.30;;;;;;5011807;28;20053;-66
2020/12/16 09:42:15;;;;;;;8.25;5.65;;;9.60;97.20;;;;;;5023754;28;20053;-67
2020/12/16 09:44:43;;;;;;;10.35;7.22;;;9.60;97.10;;;;;;5011152;28;20081;-66
2020/12/16 09:47:11;;;;;;;9.43;7.38;;;9.60;96.90;;;;;;5026114;28;20069;-66
2020/12/16 09:49:38;;;;;;;7.03;5.38;;;9.60;96.90;;;;;;5018731;28;20171;-66
2020/12/16 09:52:05;;;;;;;11.13;7.20;;;9.60;97.10;;;;;;5021889;28;20498;-67
2020/12/16 09:54:33;;;;;;;8.10;6.25;;;9.60;97.30;;;;;;5019382;28;20068;-66
2020/12/16 09:57:09;;;;;;;8.25;5.68;;;9.70;96.90;;;;;;5019656;28;20135;-67
2020/12/16 09:59:36;;;;;;;9.98;7.25;;;9.60;96.90;;;;;;5021819;28;20196;-67
2020/12/16 10:02:04;;;;;;;8.40;6.63;;;9.70;96.90;;;;;;5022921;28;20515;-67
2020/12/16 10:04:30;;;;;;;10.25;7.53;;;9.70;97.00;;;;;;5027184;28;20095;-67
2020/12/16 10:06:57;;;;;;;8.95;7.43;;;9.80;96.70;;;;;;5022073;28;20136;-67
2020/12/16 10:09:23;;;;;;;13.23;9.13;;;9.80;96.70;;;;;;5030807;28;20132;-67
2020/12/16 10:11:50;;;;;;;10.68;7.68;;;9.70;97.10;;;;;;5024577;28;20091;-67
2020/12/16 10:14:17;;;;;;;9.82;5.32;;;9.80;96.90;;;;;;5029436;28;20092;-67
2020/12/16 10:16:45;;;;;;;7.38;6.15;;;9.60;96.60;;;;;;5024541;28;20172;-67
2020/12/16 10:19:13;;;;;;;6.43;4.85;;;9.70;97.10;;;;;;5026594;28;20152;-67
2020/12/16 10:21:40;;;;;;;6.68;4.85;;;9.80;96.80;;;;;;5028396;28;20137;-67
2020/12/16 10:24:07;;;;;;;9.40;6.68;;;9.70;96.50;;;;;;5027425;28;20076;-67
2020/12/16 10:26:33;;;;;;;7.82;5.47;;;9.80;96.90;;;;;;5030495;28;20407;-66
2020/12/16 10:29:00;;;;;;;7.82;5.82;;;9.90;97.00;;;;;;5025848;28;20046;-67
2020/12/16 10:31:26;;;;;;;5.82;4.47;;;9.90;96.40;;;;;;5023776;28;20089;-67
2020/12/16 10:33:52;;;;;;;7.80;5.07;;;9.90;96.20;;;;;;5021206;28;20515;-67
2020/12/16 10:36:19;;;;;;;7.43;5.00;;;9.90;96.40;;;;;;5028148;28;20132;-67
2020/12/16 10:38:45;;;;;;;6.53;4.55;;;10.00;96.30;;;;;;5020943;28;20049;-67
2020/12/16 10:41:12;;;;;;;5.95;4.43;;;10.00;95.90;;;;;;5028446;28;20463;-67
2020/12/16 10:43:39;;;;;;;6.30;4.43;;;10.00;95.90;;;;;;5024889;28;20144;-67
2020/12/16 10:46:09;;;;;;;6.25;4.30;;;10.10;96.10;;;;;;5023784;28;20057;-67
2020/12/16 10:48:35;;;;;;;7.60;4.53;;;10.10;95.90;;;;;;5029818;28;20133;-66
2020/12/16 10:51:02;;;;;;;5.55;3.88;;;10.20;95.80;;;;;;5023227;28;20064;-66
2020/12/16 10:53:30;;;;;;;7.50;4.40;;;10.30;95.40;;;;;;5030039;28;20048;-67
2020/12/16 10:55:56;;;;;;;10.55;3.83;;;10.30;95.50;;;;;;5027717;28;20479;-67
2020/12/16 10:58:24;;;;;;;6.10;3.60;;;10.20;94.70;;;;;;5023273;28;20073;-67
2020/12/16 11:00:50;;;;;;;8.63;5.03;;;10.10;95.00;;;;;;5014127;28;20085;-67
2020/12/16 11:03:16;;;;;;;6.80;5.10;;;10.00;95.40;;;;;;5017442;28;20109;-67
2020/12/16 11:05:43;;;;;;;7.53;5.43;;;10.00;95.40;;;;;;5024348;28;20117;-66
2020/12/16 11:08:09;;;;;;;7.88;4.65;;;10.10;95.80;;;;;;5015613;28;20241;-67
2020/12/16 11:10:35;;;;;;;5.47;4.07;;;10.20;95.10;;;;;;5015836;28;20140;-67
2020/12/16 11:13:04;;;;;;;7.72;5.10;;;10.20;95.10;;;;;;5019336;28;20103;-66
2020/12/16 11:15:32;;;;;;;8.60;4.30;;;10.10;95.20;;;;;;5025312;28;20042;-66
2020/12/16 11:17:58;;;;;;;7.90;5.28;;;10.10;95.40;;;;;;5022280;28;20144;-66
2020/12/16 11:20:25;;;;;;;8.02;5.68;;;10.00;95.50;;;;;;5015587;28;20081;-67
2020/12/16 11:22:51;;;;;;;7.63;5.55;;;10.10;95.20;;;;;;5021138;28;20351;-66
2020/12/16 11:25:17;;;;;;;8.77;5.30;;;10.10;95.10;;;;;;5021934;28;20149;-66
2020/12/16 11:27:44;;;;;;;7.57;4.93;;;10.10;94.90;;;;;;5012508;28;20513;-67
2020/12/16 11:30:10;;;;;;;8.88;4.65;;;10.00;95.40;;;;;;5017750;28;20163;-66
2020/12/16 11:32:36;;;;;;;8.85;5.13;;;9.90;95.40;;;;;;5021681;28;20133;-67
2020/12/16 11:35:03;;;;;;;8.93;6.05;;;9.80;95.90;;;;;;5038120;28;20056;-67
2020/12/16 11:37:29;;;;;;;7.03;5.03;;;9.90;95.60;;;;;;5019353;28;20478;-67
2020/12/16 11:39:58;;;;;;;7.90;5.43;;;9.80;95.60;;;;;;5027424;28;20664;-67
2020/12/16 11:42:25;;;;;;;9.93;7.28;;;10.00;95.90;;;;;;5032711;28;20482;-66
2020/12/16 11:44:52;;;;;;;8.40;6.13;;;10.10;95.30;;;;;;5025572;28;20045;-66
2020/12/16 11:47:18;;;;;;;8.45;5.78;;;10.10;94.90;;;;;;5037229;28;20135;-67
2020/12/16 11:49:45;;;;;;;8.55;5.75;;;10.10;95.30;;;;;;5022113;28;20125;-67
2020/12/16 11:52:11;;;;;;;10.02;6.28;;;10.20;95.10;;;;;;5025242;28;20124;-66
2020/12/16 11:54:38;;;;;;;7.28;5.60;;;10.30;95.30;;;;;;5029357;28;20053;-66
2020/12/16 11:57:04;;;;;;;9.60;6.68;;;10.50;95.20;;;;;;5029019;28;20487;-68
2020/12/16 11:59:31;;;;;;;11.32;6.50;;;10.50;94.60;;;;;;5027396;28;20045;-67
2020/12/16 12:02:00;;;;;;;9.27;6.68;;;10.40;95.00;;;;;;5025614;28;20132;-67
2020/12/16 12:04:27;;;;;;;6.57;4.63;;;10.50;94.80;;;;;;5026745;28;20073;-68
2020/12/16 12:06:53;;;;;;;8.13;4.82;;;10.50;94.90;;;;;;5025994;28;20085;-67
2020/12/16 12:09:21;;;;;;;5.90;4.35;;;10.70;94.90;;;;;;5025005;28;20099;-67
2020/12/16 12:11:49;;;;;;;7.25;4.65;;;10.80;94.10;;;;;;5026551;28;20123;-66
2020/12/16 12:14:17;;;;;;;6.47;4.75;;;10.90;93.90;;;;;;5028304;28;20178;-66
2020/12/16 12:16:44;;;;;;;7.50;5.63;;;10.70;94.00;;;;;;5026721;28;20144;-67
2020/12/16 12:19:10;;;;;;;7.57;4.15;;;10.80;94.50;;;;;;5028653;28;20076;-67
2020/12/16 12:21:37;;;;;;;6.38;4.88;;;11.10;94.30;;;;;;5027009;28;20135;-67
2020/12/16 12:24:03;;;;;;;6.22;4.38;;;11.40;93.70;;;;;;5023278;28;20050;-67
2020/12/16 12:26:31;;;;;;;7.82;4.82;;;11.30;92.90;;;;;;5016880;28;20050;-67
2020/12/16 12:28:57;;;;;;;6.65;4.28;;;11.40;93.40;;;;;;5019490;28;20117;-67
2020/12/16 12:31:24;;;;;;;8.57;4.72;;;11.40;93.10;;;;;;5023098;28;20422;-67
2020/12/16 12:33:50;;;;;;;7.75;4.35;;;11.50;92.70;;;;;;5026210;28;20041;-67
2020/12/16 12:36:17;;;;;;;7.57;4.60;;;11.40;92.70;;;;;;5018756;28;20427;-67
2020/12/16 12:38:43;;;;;;;5.82;4.18;;;11.40;92.90;;;;;;5024540;28;20099;-66
2020/12/16 12:41:09;;;;;;;7.25;4.25;;;11.30;93.20;;;;;;5023228;28;20050;-67
2020/12/16 12:43:36;;;;;;;5.60;3.72;;;11.20;92.90;;;;;;5022306;28;20495;-67
2020/12/16 12:46:03;;;;;;;5.72;3.35;;;11.10;93.30;;;;;;5016320;28;20412;-67
2020/12/16 12:48:29;;;;;;;6.07;3.95;;;11.10;93.40;;;;;;5026706;28;20077;-67
2020/12/16 12:50:55;;;;;;;6.10;3.75;;;10.90;93.70;;;;;;5023099;28;20053;-67
2020/12/16 12:53:22;;;;;;;5.05;3.72;;;10.90;93.70;;;;;;5026659;28;20177;-67
2020/12/16 12:55:48;;;;;;;5.85;3.67;;;10.90;94.10;;;;;;5018908;28;20077;-67
2020/12/16 12:58:15;;;;;;;7.82;3.95;;;10.90;93.90;;;;;;5026269;28;20045;-67
2020/12/16 13:00:41;;;;;;;5.55;3.60;;;10.90;93.70;;;;;;5026308;28;20060;-67